sensor_id;sensor_type;location;lat;lon;timestamp;P1;durP1;ratioP1;P2;durP2;ratioP2
52342;SDS011;38277;51.972;4.624;2023-06-01T00:08:48;15.0;;;9.0;;
52342;SDS011;38277;51.972;4.624;2023-06-01T00:13:29;16.2;;;8.2;;
52342;SDS011;38277;51.972;4.624;2023-06-01T00:17:57;18.5;;;8.8;;
52342;SDS011;38277;51.972;4.624;2023-06-01T00:22:22;15.7;;;8.3;;
52342;SDS011;38277;51.972;4.624;2023-06-01T00:31:13;14.6;;;6.2;;
52342;SDS011;38277;51.972;4.624;2023-06-01T00:35:58;12.3;;;5.5;;
52342;SDS011;38277;51.972;4.624;2023-06-01T00:45:10;14.8;;;6.8;;
52342;SDS011;38277;51.972;4.624;2023-06-01T00:49:18;12.8;;;6.0;;
52342;SDS011;38277;51.972;4.624;2023-06-01T00:54:25;12.4;;;5.7;;
52342;SDS011;38277;51.972;4.624;2023-06-01T00:58:17;15.8;;;6.8;;
52342;SDS011;38277;51.972;4.624;2023-06-01T01:07:54;12.4;;;5.7;;
52342;SDS011;38277;51.972;4.624;2023-06-01T01:12:12;14.4;;;5.6;;
52342;SDS011;38277;51.972;4.624;2023-06-01T01:16:30;9.5;;;4.8;;
52342;SDS011;38277;51.972;4.624;2023-06-01T01:26:09;13.7;;;6.4;;
52342;SDS011;38277;51.972;4.624;2023-06-01T01:30:04;13.7;;;5.9;;
52342;SDS011;38277;51.972;4.624;2023-06-01T01:34:17;12.3;;;5.8;;
52342;SDS011;38277;51.972;4.624;2023-06-01T01:43:19;14.2;;;6.0;;
52342;SDS011;38277;51.972;4.624;2023-06-01T01:48:32;12.8;;;7.4;;
52342;SDS011;38277;51.972;4.624;2023-06-01T01:52:25;12.1;;;6.2;;
52342;SDS011;38277;51.972;4.624;2023-06-01T02:01:03;11.7;;;5.5;;
52342;SDS011;38277;51.972;4.624;2023-06-01T02:10:21;11.1;;;6.2;;
52342;SDS011;38277;51.972;4.624;2023-06-01T02:15:16;14.0;;;6.4;;
52342;SDS011;38277;51.972;4.624;2023-06-01T02:19:16;10.5;;;5.9;;
52342;SDS011;38277;51.972;4.624;2023-06-01T02:24:13;13.6;;;5.9;;
52342;SDS011;38277;51.972;4.624;2023-06-01T02:28:19;14.2;;;5.8;;
52342;SDS011;38277;51.972;4.624;2023-06-01T02:33:09;11.9;;;5.7;;
52342;SDS011;38277;51.972;4.624;2023-06-01T02:37:29;12.6;;;5.5;;
52342;SDS011;38277;51.972;4.624;2023-06-01T02:46:12;14.0;;;6.4;;
52342;SDS011;38277;51.972;4.624;2023-06-01T02:51:21;11.5;;;6.1;;
52342;SDS011;38277;51.972;4.624;2023-06-01T02:55:04;15.6;;;6.1;;
52342;SDS011;38277;51.972;4.624;2023-06-01T03:04:30;14.9;;;6.2;;
52342;SDS011;38277;51.972;4.624;2023-06-01T03:09:14;12.1;;;5.4;;
52342;SDS011;38277;51.972;4.624;2023-06-01T03:13:47;16.0;;;6.5;;
52342;SDS011;38277;51.972;4.624;2023-06-01T03:18:18;14.6;;;7.0;;
52342;SDS011;38277;51.972;4.624;2023-06-01T03:22:21;12.1;;;6.2;;
52342;SDS011;38277;51.972;4.624;2023-06-01T03:27:01;13.9;;;6.4;;
52342;SDS011;38277;51.972;4.624;2023-06-01T03:31:31;12.6;;;6.8;;
52342;SDS011;38277;51.972;4.624;2023-06-01T03:40:03;15.8;;;5.8;;
52342;SDS011;38277;51.972;4.624;2023-06-01T03:44:52;13.9;;;5.6;;
52342;SDS011;38277;51.972;4.624;2023-06-01T03:49:04;15.7;;;6.0;;
52342;SDS011;38277;51.972;4.624;2023-06-01T03:54:24;13.7;;;7.1;;
52342;SDS011;38277;51.972;4.624;2023-06-01T03:58:12;14.0;;;6.1;;
52342;SDS011;38277;51.972;4.624;2023-06-01T04:07:03;12.1;;;5.6;;
52342;SDS011;38277;51.972;4.624;2023-06-01T04:16:17;13.1;;;5.8;;
52342;SDS011;38277;51.972;4.624;2023-06-01T04:20:47;12.1;;;5.0;;
52342;SDS011;38277;51.972;4.624;2023-06-01T04:25:08;13.2;;;5.8;;
52342;SDS011;38277;51.972;4.624;2023-06-01T04:30:25;14.4;;;5.9;;
52342;SDS011;38277;51.972;4.624;2023-06-01T04:34:23;13.3;;;5.8;;
52342;SDS011;38277;51.972;4.624;2023-06-01T04:39:17;11.9;;;5.4;;
52342;SDS011;38277;51.972;4.624;2023-06-01T04:43:08;14.3;;;6.5;;
52342;SDS011;38277;51.972;4.624;2023-06-01T04:47:57;12.7;;;6.0;;
52342;SDS011;38277;51.972;4.624;2023-06-01T04:52:20;15.4;;;6.1;;
52342;SDS011;38277;51.972;4.624;2023-06-01T04:56:58;15.8;;;7.0;;
52342;SDS011;38277;51.972;4.624;2023-06-01T05:01:09;15.7;;;6.4;;
52342;SDS011;38277;51.972;4.624;2023-06-01T05:06:20;15.6;;;5.9;;
52342;SDS011;38277;51.972;4.624;2023-06-01T05:10:09;10.7;;;5.8;;
52342;SDS011;38277;51.972;4.624;2023-06-01T05:15:24;16.8;;;7.1;;
52342;SDS011;38277;51.972;4.624;2023-06-01T05:19:10;15.3;;;6.9;;
52342;SDS011;38277;51.972;4.624;2023-06-01T05:37:05;14.7;;;6.9;;
52342;SDS011;38277;51.972;4.624;2023-06-01T05:55:28;15.4;;;5.9;;
52342;SDS011;38277;51.972;4.624;2023-06-01T06:00:14;17.5;;;6.2;;
52342;SDS011;38277;51.972;4.624;2023-06-01T06:04:25;13.4;;;5.9;;
52342;SDS011;38277;51.972;4.624;2023-06-01T06:13:23;11.9;;;5.9;;
52342;SDS011;38277;51.972;4.624;2023-06-01T06:18:21;14.1;;;5.7;;
52342;SDS011;38277;51.972;4.624;2023-06-01T06:22:21;17.2;;;6.9;;
52342;SDS011;38277;51.972;4.624;2023-06-01T06:31:25;13.6;;;6.0;;
52342;SDS011;38277;51.972;4.624;2023-06-01T06:36:06;13.5;;;6.1;;
52342;SDS011;38277;51.972;4.624;2023-06-01T06:40:30;16.3;;;6.9;;
52342;SDS011;38277;51.972;4.624;2023-06-01T06:49:09;15.0;;;7.3;;
52342;SDS011;38277;51.972;4.624;2023-06-01T06:54:10;16.4;;;7.3;;
52342;SDS011;38277;51.972;4.624;2023-06-01T07:07:14;12.9;;;5.7;;
52342;SDS011;38277;51.972;4.624;2023-06-01T07:16:08;12.2;;;5.3;;
52342;SDS011;38277;51.972;4.624;2023-06-01T07:21:01;12.4;;;5.8;;
52342;SDS011;38277;51.972;4.624;2023-06-01T07:30:12;12.0;;;5.0;;
52342;SDS011;38277;51.972;4.624;2023-06-01T07:34:16;16.8;;;5.8;;
52342;SDS011;38277;51.972;4.624;2023-06-01T07:43:21;9.9;;;4.6;;
52342;SDS011;38277;51.972;4.624;2023-06-01T07:52:16;11.0;;;5.3;;
52342;SDS011;38277;51.972;4.624;2023-06-01T07:57:17;11.4;;;5.1;;
52342;SDS011;38277;51.972;4.624;2023-06-01T08:01:03;14.2;;;6.1;;
52342;SDS011;38277;51.972;4.624;2023-06-01T08:05:59;15.2;;;5.5;;
52342;SDS011;38277;51.972;4.624;2023-06-01T08:10:16;11.9;;;4.6;;
52342;SDS011;38277;51.972;4.624;2023-06-01T08:14:42;11.1;;;4.5;;
52342;SDS011;38277;51.972;4.624;2023-06-01T08:19:11;12.2;;;4.5;;
52342;SDS011;38277;51.972;4.624;2023-06-01T08:28:06;13.8;;;4.9;;
52342;SDS011;38277;51.972;4.624;2023-06-01T08:32:35;12.5;;;4.8;;
52342;SDS011;38277;51.972;4.624;2023-06-01T08:37:17;8.8;;;4.8;;
52342;SDS011;38277;51.972;4.624;2023-06-01T08:42:29;11.5;;;4.5;;
52342;SDS011;38277;51.972;4.624;2023-06-01T08:46:22;11.3;;;4.2;;
52342;SDS011;38277;51.972;4.624;2023-06-01T08:50:52;10.1;;;4.5;;
52342;SDS011;38277;51.972;4.624;2023-06-01T08:55:08;9.8;;;4.5;;
52342;SDS011;38277;51.972;4.624;2023-06-01T09:00:08;7.9;;;4.3;;
52342;SDS011;38277;51.972;4.624;2023-06-01T09:04:06;10.2;;;4.7;;
52342;SDS011;38277;51.972;4.624;2023-06-01T09:09:15;13.4;;;5.6;;
52342;SDS011;38277;51.972;4.624;2023-06-01T09:13:47;9.9;;;4.4;;
52342;SDS011;38277;51.972;4.624;2023-06-01T09:18:16;12.1;;;5.3;;
52342;SDS011;38277;51.972;4.624;2023-06-01T09:22:07;10.6;;;4.8;;
52342;SDS011;38277;51.972;4.624;2023-06-01T09:31:24;13.1;;;5.8;;
52342;SDS011;38277;51.972;4.624;2023-06-01T09:36:23;10.0;;;4.8;;
52342;SDS011;38277;51.972;4.624;2023-06-01T09:40:31;9.7;;;4.8;;
52342;SDS011;38277;51.972;4.624;2023-06-01T09:49:19;10.9;;;4.6;;
52342;SDS011;38277;51.972;4.624;2023-06-01T09:54:10;8.4;;;4.5;;
52342;SDS011;38277;51.972;4.624;2023-06-01T09:58:18;7.4;;;3.9;;
52342;SDS011;38277;51.972;4.624;2023-06-01T10:03:27;9.8;;;5.0;;
52342;SDS011;38277;51.972;4.624;2023-06-01T10:07:31;10.2;;;4.6;;
52342;SDS011;38277;51.972;4.624;2023-06-01T10:12:24;10.0;;;5.0;;
52342;SDS011;38277;51.972;4.624;2023-06-01T10:16:05;14.2;;;5.7;;
52342;SDS011;38277;51.972;4.624;2023-06-01T10:20:42;11.9;;;4.7;;
52342;SDS011;38277;51.972;4.624;2023-06-01T10:25:04;9.8;;;4.8;;
52342;SDS011;38277;51.972;4.624;2023-06-01T10:31:38;11.7;;;6.0;;
52342;SDS011;38277;51.972;4.624;2023-06-01T10:34:14;10.7;;;4.9;;
52342;SDS011;38277;51.972;4.624;2023-06-01T10:38:36;10.4;;;4.7;;
52342;SDS011;38277;51.972;4.624;2023-06-01T10:43:40;8.5;;;4.6;;
52342;SDS011;38277;51.972;4.624;2023-06-01T10:48:09;10.4;;;5.1;;
52342;SDS011;38277;51.972;4.624;2023-06-01T10:53:24;10.6;;;4.8;;
52342;SDS011;38277;51.972;4.624;2023-06-01T10:57:26;11.1;;;5.0;;
52342;SDS011;38277;51.972;4.624;2023-06-01T11:01:29;11.8;;;5.4;;
52342;SDS011;38277;51.972;4.624;2023-06-01T11:11:00;9.5;;;4.6;;
52342;SDS011;38277;51.972;4.624;2023-06-01T11:15:09;9.3;;;4.8;;
52342;SDS011;38277;51.972;4.624;2023-06-01T11:19:35;9.7;;;4.9;;
52342;SDS011;38277;51.972;4.624;2023-06-01T11:28:17;9.8;;;4.5;;
52342;SDS011;38277;51.972;4.624;2023-06-01T11:32:36;9.9;;;4.4;;
52342;SDS011;38277;51.972;4.624;2023-06-01T11:37:32;9.4;;;4.8;;
52342;SDS011;38277;51.972;4.624;2023-06-01T11:42:03;11.3;;;4.5;;
52342;SDS011;38277;51.972;4.624;2023-06-01T11:46:36;10.6;;;4.6;;
52342;SDS011;38277;51.972;4.624;2023-06-01T11:50:36;9.9;;;4.9;;
52342;SDS011;38277;51.972;4.624;2023-06-01T11:55:27;7.6;;;4.1;;
52342;SDS011;38277;51.972;4.624;2023-06-01T12:00:10;10.3;;;5.0;;
52342;SDS011;38277;51.972;4.624;2023-06-01T12:04:12;9.2;;;4.4;;
52342;SDS011;38277;51.972;4.624;2023-06-01T12:08:58;10.1;;;4.3;;
52342;SDS011;38277;51.972;4.624;2023-06-01T12:13:04;10.5;;;4.1;;
52342;SDS011;38277;51.972;4.624;2023-06-01T12:22:38;9.2;;;5.2;;
52342;SDS011;38277;51.972;4.624;2023-06-01T12:26:44;10.2;;;4.1;;
52342;SDS011;38277;51.972;4.624;2023-06-01T12:31:30;9.9;;;5.2;;
52342;SDS011;38277;51.972;4.624;2023-06-01T12:35:50;7.9;;;3.9;;
52342;SDS011;38277;51.972;4.624;2023-06-01T12:40:08;7.4;;;4.1;;
52342;SDS011;38277;51.972;4.624;2023-06-01T12:44:41;7.4;;;3.9;;
52342;SDS011;38277;51.972;4.624;2023-06-01T12:58:17;6.6;;;3.7;;
52342;SDS011;38277;51.972;4.624;2023-06-01T13:02:51;8.6;;;3.2;;
52342;SDS011;38277;51.972;4.624;2023-06-01T13:07:03;7.0;;;3.0;;
52342;SDS011;38277;51.972;4.624;2023-06-01T13:11:50;5.5;;;2.5;;
52342;SDS011;38277;51.972;4.624;2023-06-01T13:16:23;8.2;;;2.9;;
52342;SDS011;38277;51.972;4.624;2023-06-01T13:20:45;8.3;;;2.4;;
52342;SDS011;38277;51.972;4.624;2023-06-01T13:25:41;5.6;;;2.4;;
52342;SDS011;38277;51.972;4.624;2023-06-01T13:34:17;4.1;;;2.1;;
52342;SDS011;38277;51.972;4.624;2023-06-01T13:38:40;3.2;;;1.9;;
52342;SDS011;38277;51.972;4.624;2023-06-01T13:43:26;4.0;;;1.9;;
52342;SDS011;38277;51.972;4.624;2023-06-01T13:47:52;6.8;;;2.8;;
52342;SDS011;38277;51.972;4.624;2023-06-01T13:52:28;3.8;;;1.8;;
52342;SDS011;38277;51.972;4.624;2023-06-01T13:56:53;4.2;;;1.7;;
52342;SDS011;38277;51.972;4.624;2023-06-01T14:01:13;4.2;;;1.6;;
52342;SDS011;38277;51.972;4.624;2023-06-01T14:05:41;3.1;;;1.4;;
52342;SDS011;38277;51.972;4.624;2023-06-01T14:10:52;4.3;;;1.3;;
52342;SDS011;38277;51.972;4.624;2023-06-01T14:14:58;3.8;;;1.5;;
52342;SDS011;38277;51.972;4.624;2023-06-01T14:19:26;3.1;;;1.2;;
52342;SDS011;38277;51.972;4.624;2023-06-01T14:28:23;6.0;;;2.4;;
52342;SDS011;38277;51.972;4.624;2023-06-01T14:32:57;4.7;;;1.9;;
52342;SDS011;38277;51.972;4.624;2023-06-01T14:37:10;4.5;;;1.9;;
52342;SDS011;38277;51.972;4.624;2023-06-01T14:46:32;9.3;;;3.1;;
52342;SDS011;38277;51.972;4.624;2023-06-01T14:50:51;7.4;;;3.6;;
52342;SDS011;38277;51.972;4.624;2023-06-01T14:55:25;8.4;;;3.6;;
52342;SDS011;38277;51.972;4.624;2023-06-01T14:59:38;7.4;;;3.0;;
52342;SDS011;38277;51.972;4.624;2023-06-01T15:04:22;6.0;;;2.3;;
52342;SDS011;38277;51.972;4.624;2023-06-01T15:08:50;7.3;;;2.6;;
52342;SDS011;38277;51.972;4.624;2023-06-01T15:13:29;8.6;;;3.2;;
52342;SDS011;38277;51.972;4.624;2023-06-01T15:17:58;11.6;;;3.9;;
52342;SDS011;38277;51.972;4.624;2023-06-01T15:22:05;5.8;;;3.1;;
52342;SDS011;38277;51.972;4.624;2023-06-01T15:26:38;8.0;;;2.9;;
52342;SDS011;38277;51.972;4.624;2023-06-01T15:31:08;7.8;;;3.2;;
52342;SDS011;38277;51.972;4.624;2023-06-01T15:35:49;6.9;;;2.5;;
52342;SDS011;38277;51.972;4.624;2023-06-01T15:40:27;7.9;;;3.2;;
52342;SDS011;38277;51.972;4.624;2023-06-01T15:44:38;6.6;;;2.6;;
52342;SDS011;38277;51.972;4.624;2023-06-01T15:53:38;4.9;;;2.5;;
52342;SDS011;38277;51.972;4.624;2023-06-01T15:58:42;6.5;;;2.8;;
52342;SDS011;38277;51.972;4.624;2023-06-01T16:02:51;8.3;;;2.7;;
52342;SDS011;38277;51.972;4.624;2023-06-01T16:07:44;7.1;;;2.2;;
52342;SDS011;38277;51.972;4.624;2023-06-01T16:11:36;4.8;;;2.0;;
52342;SDS011;38277;51.972;4.624;2023-06-01T16:16:35;5.5;;;2.3;;
52342;SDS011;38277;51.972;4.624;2023-06-01T16:20:49;5.2;;;1.9;;
52342;SDS011;38277;51.972;4.624;2023-06-01T16:25:12;6.4;;;2.3;;
52342;SDS011;38277;51.972;4.624;2023-06-01T16:29:34;4.3;;;1.9;;
52342;SDS011;38277;51.972;4.624;2023-06-01T16:34:16;5.0;;;1.9;;
52342;SDS011;38277;51.972;4.624;2023-06-01T16:38:44;5.7;;;2.6;;
52342;SDS011;38277;51.972;4.624;2023-06-01T16:43:18;5.0;;;1.9;;
52342;SDS011;38277;51.972;4.624;2023-06-01T16:47:54;6.7;;;2.0;;
52342;SDS011;38277;51.972;4.624;2023-06-01T16:52:17;7.9;;;2.5;;
52342;SDS011;38277;51.972;4.624;2023-06-01T16:56:55;6.7;;;2.8;;
52342;SDS011;38277;51.972;4.624;2023-06-01T17:01:16;8.3;;;2.7;;
52342;SDS011;38277;51.972;4.624;2023-06-01T17:05:50;7.4;;;2.5;;
52342;SDS011;38277;51.972;4.624;2023-06-01T17:23:59;5.9;;;2.2;;
52342;SDS011;38277;51.972;4.624;2023-06-01T17:28:12;7.7;;;2.2;;
52342;SDS011;38277;51.972;4.624;2023-06-01T17:37:26;8.7;;;2.6;;
52342;SDS011;38277;51.972;4.624;2023-06-01T17:41:37;9.0;;;3.5;;
52342;SDS011;38277;51.972;4.624;2023-06-01T17:46:43;7.4;;;2.7;;
52342;SDS011;38277;51.972;4.624;2023-06-01T17:55:26;8.6;;;3.4;;
52342;SDS011;38277;51.972;4.624;2023-06-01T17:59:51;9.9;;;2.9;;
52342;SDS011;38277;51.972;4.624;2023-06-01T18:04:30;13.1;;;4.1;;
52342;SDS011;38277;51.972;4.624;2023-06-01T18:08:43;10.5;;;3.8;;
52342;SDS011;38277;51.972;4.624;2023-06-01T18:13:52;9.1;;;3.1;;
52342;SDS011;38277;51.972;4.624;2023-06-01T18:18:34;11.4;;;3.2;;
52342;SDS011;38277;51.972;4.624;2023-06-01T18:22:14;7.2;;;2.8;;
52342;SDS011;38277;51.972;4.624;2023-06-01T18:26:38;7.3;;;3.4;;
52342;SDS011;38277;51.972;4.624;2023-06-01T18:31:29;6.6;;;3.1;;
52342;SDS011;38277;51.972;4.624;2023-06-01T18:36:36;8.8;;;2.9;;
52342;SDS011;38277;51.972;4.624;2023-06-01T18:40:29;8.9;;;3.1;;
52342;SDS011;38277;51.972;4.624;2023-06-01T18:44:54;10.4;;;3.5;;
52342;SDS011;38277;51.972;4.624;2023-06-01T18:49:28;9.1;;;3.1;;
52342;SDS011;38277;51.972;4.624;2023-06-01T18:58:03;6.9;;;2.3;;
52342;SDS011;38277;51.972;4.624;2023-06-01T19:07:39;5.0;;;1.9;;
52342;SDS011;38277;51.972;4.624;2023-06-01T19:12:24;3.9;;;1.5;;
52342;SDS011;38277;51.972;4.624;2023-06-01T19:16:21;5.7;;;2.2;;
52342;SDS011;38277;51.972;4.624;2023-06-01T19:21:17;4.5;;;1.9;;
52342;SDS011;38277;51.972;4.624;2023-06-01T19:25:06;3.1;;;1.8;;
52342;SDS011;38277;51.972;4.624;2023-06-01T19:30:09;5.3;;;1.5;;
52342;SDS011;38277;51.972;4.624;2023-06-01T19:34:17;3.2;;;1.3;;
52342;SDS011;38277;51.972;4.624;2023-06-01T19:39:36;3.8;;;1.6;;
52342;SDS011;38277;51.972;4.624;2023-06-01T19:43:38;4.3;;;1.6;;
52342;SDS011;38277;51.972;4.624;2023-06-01T19:48:13;6.2;;;1.6;;
52342;SDS011;38277;51.972;4.624;2023-06-01T19:52:10;3.4;;;1.7;;
52342;SDS011;38277;51.972;4.624;2023-06-01T19:57:03;4.1;;;1.7;;
52342;SDS011;38277;51.972;4.624;2023-06-01T20:01:33;6.7;;;1.8;;
52342;SDS011;38277;51.972;4.624;2023-06-01T20:05:39;5.1;;;2.4;;
52342;SDS011;38277;51.972;4.624;2023-06-01T20:11:04;3.8;;;1.8;;
52342;SDS011;38277;51.972;4.624;2023-06-01T20:15:21;4.3;;;2.1;;
52342;SDS011;38277;51.972;4.624;2023-06-01T20:19:07;3.0;;;1.9;;
52342;SDS011;38277;51.972;4.624;2023-06-01T20:24:06;7.9;;;1.9;;
52342;SDS011;38277;51.972;4.624;2023-06-01T20:28:14;4.5;;;1.6;;
52342;SDS011;38277;51.972;4.624;2023-06-01T20:33:00;4.5;;;1.8;;
52342;SDS011;38277;51.972;4.624;2023-06-01T20:37:20;4.5;;;1.8;;
52342;SDS011;38277;51.972;4.624;2023-06-01T20:42:11;2.4;;;1.9;;
52342;SDS011;38277;51.972;4.624;2023-06-01T20:46:31;4.7;;;1.9;;
52342;SDS011;38277;51.972;4.624;2023-06-01T20:51:09;5.7;;;2.2;;
52342;SDS011;38277;51.972;4.624;2023-06-01T20:55:26;6.5;;;2.4;;
52342;SDS011;38277;51.972;4.624;2023-06-01T21:04:07;6.5;;;2.0;;
52342;SDS011;38277;51.972;4.624;2023-06-01T21:08:40;5.9;;;1.9;;
52342;SDS011;38277;51.972;4.624;2023-06-01T21:22:30;7.2;;;2.3;;
52342;SDS011;38277;51.972;4.624;2023-06-01T21:26:53;8.7;;;2.6;;
52342;SDS011;38277;51.972;4.624;2023-06-01T21:31:18;7.3;;;2.8;;
52342;SDS011;38277;51.972;4.624;2023-06-01T21:40:29;8.7;;;2.4;;
52342;SDS011;38277;51.972;4.624;2023-06-01T21:44:35;4.1;;;2.1;;
52342;SDS011;38277;51.972;4.624;2023-06-01T21:49:25;7.6;;;2.1;;
52342;SDS011;38277;51.972;4.624;2023-06-01T21:53:45;9.5;;;3.4;;
52342;SDS011;38277;51.972;4.624;2023-06-01T21:58:26;7.9;;;2.5;;
52342;SDS011;38277;51.972;4.624;2023-06-01T22:03:06;8.7;;;2.3;;
52342;SDS011;38277;51.972;4.624;2023-06-01T22:07:15;8.3;;;2.6;;
52342;SDS011;38277;51.972;4.624;2023-06-01T22:11:58;9.2;;;2.4;;
52342;SDS011;38277;51.972;4.624;2023-06-01T22:16:05;10.7;;;2.5;;
52342;SDS011;38277;51.972;4.624;2023-06-01T22:20:46;8.9;;;2.8;;
52342;SDS011;38277;51.972;4.624;2023-06-01T22:25:13;9.9;;;3.0;;
52342;SDS011;38277;51.972;4.624;2023-06-01T22:30:29;8.6;;;2.7;;
52342;SDS011;38277;51.972;4.624;2023-06-01T22:34:32;10.3;;;2.4;;
52342;SDS011;38277;51.972;4.624;2023-06-01T22:38:42;12.1;;;3.0;;
52342;SDS011;38277;51.972;4.624;2023-06-01T22:43:03;9.7;;;2.7;;
52342;SDS011;38277;51.972;4.624;2023-06-01T22:47:51;8.5;;;2.9;;
52342;SDS011;38277;51.972;4.624;2023-06-01T22:52:06;7.6;;;2.5;;
52342;SDS011;38277;51.972;4.624;2023-06-01T22:56:56;10.8;;;2.3;;
52342;SDS011;38277;51.972;4.624;2023-06-01T23:05:54;8.2;;;2.4;;
52342;SDS011;38277;51.972;4.624;2023-06-01T23:10:03;7.8;;;3.4;;
52342;SDS011;38277;51.972;4.624;2023-06-01T23:14:36;12.2;;;3.2;;
52342;SDS011;38277;51.972;4.624;2023-06-01T23:23:48;10.3;;;3.1;;
52342;SDS011;38277;51.972;4.624;2023-06-01T23:28:16;9.5;;;3.5;;
52342;SDS011;38277;51.972;4.624;2023-06-01T23:32:39;10.0;;;2.8;;
52342;SDS011;38277;51.972;4.624;2023-06-01T23:37:24;9.7;;;2.8;;
52342;SDS011;38277;51.972;4.624;2023-06-01T23:41:54;11.3;;;3.4;;
52342;SDS011;38277;51.972;4.624;2023-06-01T23:46:24;11.1;;;3.3;;
52342;SDS011;38277;51.972;4.624;2023-06-01T23:50:52;10.1;;;2.9;;
52342;SDS011;38277;51.972;4.624;2023-06-01T23:55:09;8.8;;;3.0;;
